createdAt,value
2019-04-14T00:00:51.456Z,64.76
2019-04-14T00:03:21.595Z,67.88
2019-04-14T00:05:49.688Z,68.34
2019-04-14T00:08:17.741Z,68.71
2019-04-14T00:10:46.453Z,67.85
2019-04-14T00:13:15.243Z,68.30
2019-04-14T00:18:17.133Z,66.10
2019-04-14T00:20:45.482Z,66.50
2019-04-14T00:23:14.847Z,65.81
2019-04-14T00:25:43.276Z,66.87
2019-04-14T00:28:11.704Z,67.80
2019-04-14T00:30:39.101Z,68.18
2019-04-14T00:33:08.386Z,68.00
2019-04-14T00:35:41.222Z,65.68
2019-04-14T00:38:26.010Z,67.31
2019-04-14T00:40:54.023Z,65.26
2019-04-14T00:48:55.952Z,64.73
2019-04-14T00:51:24.508Z,66.40
2019-04-14T00:53:53.347Z,67.45
2019-04-14T00:56:21.507Z,67.78
2019-04-14T00:58:49.735Z,66.75
2019-04-14T01:01:17.640Z,67.78
2019-04-14T01:03:46.071Z,66.15
2019-04-14T01:06:14.453Z,64.86
2019-04-14T01:08:42.837Z,66.08
2019-04-14T01:11:11.763Z,64.87
2019-04-14T01:16:20.298Z,65.65
2019-04-14T01:21:21.798Z,64.96
2019-04-14T01:23:50.182Z,65.41
2019-04-14T01:26:20.279Z,64.86
2019-04-14T01:28:48.332Z,64.13
2019-04-14T01:33:51.125Z,63.03
2019-04-14T01:38:53.629Z,64.53
2019-04-14T01:41:21.684Z,64.13
2019-04-14T01:43:49.656Z,64.35
2019-04-14T01:46:24.138Z,64.39
2019-04-14T01:48:47.448Z,63.61
2019-04-14T01:54:32.401Z,64.31
2019-04-14T01:57:06.671Z,64.80
2019-04-14T01:59:34.872Z,63.93
2019-04-14T02:02:03.046Z,64.40
2019-04-14T02:04:31.506Z,65.26
2019-04-14T02:06:59.850Z,64.00
2019-04-14T02:09:29.375Z,63.82
2019-04-14T02:11:57.463Z,63.39
2019-04-14T02:14:25.486Z,65.68
2019-04-14T02:16:57.301Z,64.90
2019-04-14T02:21:58.484Z,64.44
2019-04-14T02:24:26.336Z,64.99
2019-04-14T02:26:54.764Z,64.60
2019-04-14T02:29:23.333Z,64.52
2019-04-14T02:34:57.347Z,65.12
2019-04-14T02:37:19.538Z,64.81
2019-04-14T02:40:00.443Z,64.38
2019-04-14T02:42:28.266Z,64.52
2019-04-14T02:44:46.053Z,64.27
2019-04-14T02:54:51.778Z,66.81
2019-04-14T02:57:17.630Z,65.48
2019-04-14T02:59:43.245Z,66.55
2019-04-14T03:02:24.644Z,66.51
2019-04-14T03:09:42.423Z,67.12
2019-04-14T03:12:01.374Z,69.39
2019-04-14T03:17:14.273Z,67.03
2019-04-14T03:19:35.210Z,66.54
2019-04-14T03:24:34.061Z,67.15
2019-04-14T03:27:13.511Z,68.14
2019-04-14T03:29:45.047Z,69.07
2019-04-14T03:32:32.360Z,68.71
2019-04-14T03:44:34.636Z,67.86
2019-04-14T03:49:31.804Z,67.88
2019-04-14T03:51:57.825Z,67.86
2019-04-14T03:54:20.605Z,67.00
2019-04-14T03:56:46.683Z,66.28
2019-04-14T03:59:15.107Z,67.17
2019-04-14T04:01:43.497Z,67.63
2019-04-14T04:04:11.849Z,67.95
2019-04-14T04:06:39.921Z,68.23
2019-04-14T04:09:08.334Z,67.33
2019-04-14T04:11:36.632Z,67.66
2019-04-14T04:14:05.245Z,66.98
2019-04-14T04:19:15.601Z,66.09
2019-04-14T04:24:39.545Z,66.25
2019-04-14T04:30:02.144Z,66.93
2019-04-14T04:35:08.562Z,67.55
2019-04-14T04:37:36.819Z,67.30
2019-04-14T04:40:05.048Z,67.16
2019-04-14T04:42:33.305Z,67.16
2019-04-14T04:45:01.962Z,67.28
2019-04-14T04:47:30.180Z,66.69
2019-04-14T04:49:58.548Z,67.60
2019-04-14T04:52:28.059Z,67.08
2019-04-14T04:54:55.927Z,66.91
2019-04-14T04:57:24.208Z,67.97
2019-04-14T04:59:52.056Z,69.44
2019-04-14T05:02:22.087Z,71.10
2019-04-14T05:04:50.541Z,68.64
2019-04-14T05:07:18.795Z,68.54
2019-04-14T05:09:51.936Z,67.05
2019-04-14T05:17:51.917Z,66.17
2019-04-14T05:20:20.411Z,66.82
2019-04-14T05:22:48.766Z,65.91
2019-04-14T05:25:17.061Z,65.26
2019-04-14T05:27:45.458Z,65.63
2019-04-14T05:30:13.780Z,65.25
2019-04-14T05:32:43.457Z,65.76
2019-04-14T05:35:11.917Z,65.30
2019-04-14T05:37:40.051Z,64.71
2019-04-14T05:40:08.138Z,64.16
2019-04-14T05:42:36.244Z,64.31
2019-04-14T05:45:04.474Z,63.56
2019-04-14T05:47:32.646Z,62.32
2019-04-14T05:50:01.109Z,62.27
2019-04-14T05:52:29.634Z,61.44
2019-04-14T05:54:57.963Z,62.10
2019-04-14T06:00:01.641Z,61.38
2019-04-14T06:05:03.712Z,61.24
2019-04-14T06:07:31.516Z,61.87
2019-04-14T06:12:34.157Z,60.80
2019-04-14T06:15:02.505Z,61.39
2019-04-14T06:20:05.170Z,60.33
2019-04-14T06:25:07.749Z,59.71
2019-04-14T06:27:36.124Z,60.38
2019-04-14T06:30:05.373Z,59.83
2019-04-14T06:32:39.214Z,59.90
2019-04-14T06:35:15.063Z,60.71
2019-04-14T06:37:49.381Z,60.20
2019-04-14T06:40:17.725Z,60.02
2019-04-14T06:42:47.708Z,58.98
2019-04-14T06:45:16.057Z,59.69
2019-04-14T06:47:44.482Z,58.51
2019-04-14T06:50:12.964Z,58.35
2019-04-14T06:52:41.341Z,58.13
2019-04-14T06:55:09.729Z,57.99
2019-04-14T06:57:38.132Z,58.11
2019-04-14T07:02:40.772Z,56.67
2019-04-14T07:05:09.092Z,56.45
2019-04-14T07:07:37.439Z,55.55
2019-04-14T07:12:43.536Z,55.70
2019-04-14T07:15:13.421Z,55.41
2019-04-14T07:17:41.760Z,56.18
2019-04-14T07:20:10.140Z,56.32
2019-04-14T07:22:38.482Z,55.36
2019-04-14T07:25:06.906Z,56.73
2019-04-14T07:27:35.299Z,56.33
2019-04-14T07:30:09.157Z,55.45
2019-04-14T07:32:43.079Z,57.73
2019-04-14T07:38:09.357Z,58.46
2019-04-14T07:40:44.047Z,55.61
2019-04-14T07:54:41.390Z,51.62
2019-04-14T07:57:09.569Z,50.35
2019-04-14T08:02:16.652Z,48.10
2019-04-14T08:04:45.240Z,49.21
2019-04-14T08:07:13.593Z,50.11
2019-04-14T08:09:41.933Z,49.98
2019-04-14T08:12:10.282Z,51.00
2019-04-14T08:14:38.619Z,50.52
2019-04-14T08:17:07.072Z,49.65
2019-04-14T08:19:36.461Z,52.98
2019-04-14T08:22:10.748Z,51.11
2019-04-14T08:24:39.112Z,51.99
2019-04-14T08:27:07.655Z,50.49
2019-04-14T08:29:36.033Z,50.27
2019-04-14T08:32:04.379Z,51.51
2019-04-14T08:34:32.816Z,49.30
2019-04-14T08:39:35.509Z,49.35
2019-04-14T08:44:39.596Z,46.24
2019-04-14T08:49:45.532Z,45.66
2019-04-14T08:55:10.196Z,50.00
2019-04-14T08:57:39.287Z,49.31
2019-04-14T09:00:11.440Z,46.32
2019-04-14T09:02:45.368Z,46.23
2019-04-14T09:05:15.948Z,45.25
2019-04-14T09:07:44.298Z,45.62
2019-04-14T09:10:12.624Z,47.07
2019-04-14T09:12:44.300Z,45.27
2019-04-14T09:17:47.159Z,40.91
2019-04-14T09:20:15.556Z,36.67
2019-04-14T09:22:43.919Z,35.41
2019-04-14T09:25:12.306Z,35.16
2019-04-14T09:30:14.904Z,45.23
2019-04-14T09:35:17.520Z,39.01
2019-04-14T09:37:45.894Z,41.62
2019-04-14T09:42:48.517Z,37.91
2019-04-14T09:45:16.868Z,34.98
2019-04-14T09:47:45.213Z,33.24
2019-04-14T09:50:13.649Z,32.73
2019-04-14T09:52:42.044Z,33.65
2019-04-14T09:55:10.386Z,34.24
2019-04-14T09:57:38.741Z,31.86
2019-04-14T10:00:07.087Z,29.79
2019-04-14T10:02:35.436Z,33.38
2019-04-14T10:05:03.850Z,37.56
2019-04-14T10:07:32.235Z,36.24
2019-04-14T10:10:00.617Z,31.92
2019-04-14T10:12:29.015Z,34.64
2019-04-14T10:14:57.392Z,31.15
2019-04-14T10:17:25.773Z,28.82
2019-04-14T10:19:54.543Z,28.11
2019-04-14T10:22:33.443Z,28.96
2019-04-14T10:24:51.322Z,31.38
2019-04-14T10:27:19.691Z,33.14
2019-04-14T10:29:48.108Z,34.84
2019-04-14T10:32:16.455Z,33.37
2019-04-14T10:34:44.870Z,35.47
2019-04-14T10:37:13.217Z,36.13
2019-04-14T10:39:41.569Z,34.82
2019-04-14T10:42:10.004Z,34.07
2019-04-14T10:47:12.637Z,37.26
2019-04-14T10:49:40.989Z,36.45
2019-04-14T10:52:09.403Z,33.87
2019-04-14T10:57:12.088Z,31.46
2019-04-14T10:59:40.485Z,29.10
2019-04-14T11:04:43.032Z,27.78
2019-04-14T11:07:11.367Z,32.32
2019-04-14T11:09:39.827Z,31.68
2019-04-14T11:12:08.322Z,30.03
2019-04-14T11:14:36.691Z,31.84
2019-04-14T11:19:39.252Z,35.59
2019-04-14T11:22:07.604Z,35.68
2019-04-14T11:24:36.074Z,37.54
2019-04-14T11:27:04.559Z,36.44
2019-04-14T11:35:08.153Z,38.79
2019-04-14T11:37:43.147Z,37.90
2019-04-14T11:42:52.260Z,37.98
2019-04-14T11:45:14.294Z,38.13
2019-04-14T11:47:42.646Z,37.88
2019-04-14T11:50:10.997Z,36.67
2019-04-14T11:52:39.456Z,38.33
2019-04-14T11:55:07.842Z,36.31
2019-04-14T11:57:36.215Z,36.80
2019-04-14T12:00:11.036Z,36.71
2019-04-14T12:05:27.508Z,37.29
2019-04-14T12:10:30.185Z,38.18
2019-04-14T12:12:59.490Z,39.21
2019-04-14T12:15:27.844Z,40.36
2019-04-14T12:17:56.176Z,39.33
2019-04-14T12:22:58.924Z,38.96
2019-04-14T12:25:27.276Z,39.62
2019-04-14T12:27:56.022Z,38.72
2019-04-14T12:30:24.506Z,39.74
2019-04-14T12:32:52.795Z,39.72
2019-04-14T12:37:55.437Z,38.92
2019-04-14T12:40:23.773Z,39.94
2019-04-14T12:45:31.797Z,41.19
2019-04-14T12:50:34.390Z,40.93
2019-04-14T12:53:02.733Z,40.39
2019-04-14T12:55:31.093Z,41.97
2019-04-14T12:58:00.241Z,43.23
2019-04-14T13:00:39.279Z,43.75
2019-04-14T13:03:07.620Z,42.50
2019-04-14T13:05:36.053Z,41.83
2019-04-14T13:08:04.426Z,43.28
2019-04-14T13:10:32.828Z,42.01
2019-04-14T13:13:01.208Z,41.26
2019-04-14T13:15:29.571Z,41.26
2019-04-14T13:17:57.984Z,41.94
2019-04-14T13:23:00.584Z,41.38
2019-04-14T13:28:03.122Z,41.89
2019-04-14T13:30:31.466Z,41.31
2019-04-14T13:35:34.012Z,42.11
2019-04-14T13:38:02.437Z,41.56
2019-04-14T13:43:07.077Z,42.76
2019-04-14T13:45:35.472Z,41.78
2019-04-14T13:50:38.027Z,41.69
2019-04-14T13:53:06.382Z,41.66
2019-04-14T13:55:34.736Z,41.33
2019-04-14T14:00:38.284Z,42.47
2019-04-14T14:03:06.651Z,42.66
2019-04-14T14:08:09.267Z,40.81
2019-04-14T14:10:37.615Z,41.25
2019-04-14T14:15:41.270Z,42.03
2019-04-14T14:21:08.800Z,44.44
2019-04-14T14:23:42.536Z,43.04
2019-04-14T14:28:45.123Z,41.90
2019-04-14T14:31:14.009Z,41.57
2019-04-14T14:33:45.335Z,42.33
2019-04-14T14:38:49.025Z,42.39
2019-04-14T14:41:17.385Z,42.28
2019-04-14T14:49:14.578Z,42.07
2019-04-14T14:51:43.824Z,41.99
2019-04-14T14:54:12.178Z,41.21
2019-04-14T14:56:40.836Z,41.47
2019-04-14T14:59:09.158Z,42.80
2019-04-14T15:01:37.505Z,43.53
2019-04-14T15:04:05.851Z,43.42
2019-04-14T15:06:34.197Z,42.18
2019-04-14T15:09:02.550Z,41.35
2019-04-14T15:11:30.891Z,40.86
2019-04-14T15:13:59.225Z,41.12
2019-04-14T15:16:27.568Z,41.34
2019-04-14T15:18:55.908Z,42.62
2019-04-14T15:21:24.262Z,41.50
2019-04-14T15:26:26.854Z,42.17
2019-04-14T15:28:55.224Z,41.31
2019-04-14T15:31:23.607Z,41.68
2019-04-14T15:33:51.961Z,42.09
2019-04-14T15:36:20.309Z,42.61
2019-04-14T15:38:49.591Z,43.01
2019-04-14T15:41:17.923Z,43.19
2019-04-14T15:43:46.266Z,43.57
2019-04-14T15:48:48.966Z,44.48
2019-04-14T15:53:53.544Z,43.88
2019-04-14T15:56:23.192Z,43.72
2019-04-14T15:59:05.530Z,44.46
2019-04-14T16:07:03.250Z,44.04
2019-04-14T16:09:41.496Z,43.57
2019-04-14T16:12:12.109Z,43.86
2019-04-14T16:14:41.672Z,44.32
2019-04-14T16:19:44.228Z,46.36
2019-04-14T16:22:12.572Z,45.87
2019-04-14T16:24:40.932Z,47.19
2019-04-14T16:27:09.281Z,47.90
2019-04-14T16:29:37.648Z,47.14
2019-04-14T16:35:09.019Z,49.13
2019-04-14T16:37:36.094Z,48.41
2019-04-14T16:40:04.489Z,48.37
2019-04-14T16:42:32.875Z,47.51
2019-04-14T16:45:01.264Z,47.26
2019-04-14T16:47:29.635Z,48.02
2019-04-14T16:49:58.007Z,47.76
2019-04-14T16:52:27.149Z,48.18
2019-04-14T16:55:08.160Z,48.17
2019-04-14T16:57:52.236Z,47.91
2019-04-14T17:00:21.808Z,48.18
2019-04-14T17:02:50.238Z,49.02
2019-04-14T17:05:18.443Z,47.71
2019-04-14T17:07:46.800Z,48.50
2019-04-14T17:10:15.129Z,48.97
2019-04-14T17:15:18.146Z,48.59
2019-04-14T17:20:26.726Z,49.47
2019-04-14T17:22:59.015Z,48.96
2019-04-14T17:28:12.375Z,49.56
2019-04-14T17:33:18.800Z,51.23
2019-04-14T17:35:52.130Z,51.49
2019-04-14T17:38:26.680Z,50.98
2019-04-14T17:40:56.043Z,50.77
2019-04-14T17:43:24.685Z,50.26
2019-04-14T17:46:09.696Z,49.91
2019-04-14T17:51:35.172Z,49.91
2019-04-14T17:56:39.599Z,49.73
2019-04-14T18:04:36.069Z,50.52
2019-04-14T18:07:05.691Z,50.25
2019-04-14T18:09:39.900Z,51.14
2019-04-14T18:12:22.277Z,51.00
2019-04-14T18:14:54.026Z,51.04
2019-04-14T18:17:22.356Z,50.76
2019-04-14T18:20:05.595Z,51.12
2019-04-14T18:22:34.144Z,51.29
2019-04-14T18:25:02.516Z,51.91
2019-04-14T18:27:30.873Z,51.48
2019-04-14T18:32:41.432Z,51.63
2019-04-14T18:35:14.310Z,52.59
2019-04-14T18:37:44.976Z,53.42
2019-04-14T18:40:18.156Z,54.22
2019-04-14T18:42:46.494Z,53.63
2019-04-14T18:45:17.587Z,52.58
2019-04-14T18:47:47.873Z,53.94
2019-04-14T18:50:17.943Z,54.50
2019-04-14T18:52:50.150Z,53.54
2019-04-14T18:55:29.315Z,52.16
2019-04-14T19:00:43.605Z,52.61
2019-04-14T19:03:11.956Z,53.06
2019-04-14T19:05:40.403Z,54.05
2019-04-14T19:08:08.735Z,53.44
2019-04-14T19:10:38.173Z,53.77
2019-04-14T19:13:09.352Z,53.24
2019-04-14T19:15:37.515Z,53.92
2019-04-14T19:18:21.515Z,54.07
2019-04-14T19:20:51.782Z,54.28
2019-04-14T19:23:20.128Z,55.15
2019-04-14T19:25:48.549Z,53.75
2019-04-14T19:28:16.925Z,54.10
2019-04-14T19:30:45.356Z,55.14
2019-04-14T19:33:13.789Z,57.30
2019-04-14T19:35:42.164Z,55.98
2019-04-14T19:38:10.567Z,57.14
2019-04-14T19:40:38.976Z,57.98
2019-04-14T19:43:07.432Z,56.23
2019-04-14T19:45:35.786Z,56.58
2019-04-14T19:48:04.114Z,56.95
2019-04-14T19:50:32.469Z,58.61
2019-04-14T19:53:00.852Z,59.06
2019-04-14T19:55:29.233Z,60.13
2019-04-14T19:57:57.574Z,62.79
2019-04-14T20:00:25.938Z,64.32
2019-04-14T20:05:28.625Z,66.82
2019-04-14T20:07:57.088Z,65.24
2019-04-14T20:10:25.491Z,64.82
2019-04-14T20:12:53.880Z,62.92
2019-04-14T20:17:59.281Z,60.41
2019-04-14T20:20:30.086Z,62.65
2019-04-14T20:25:41.576Z,60.59
2019-04-14T20:28:09.974Z,60.51
2019-04-14T20:33:12.505Z,59.04
2019-04-14T20:35:40.851Z,59.23
2019-04-14T20:40:45.452Z,60.08
2019-04-14T20:43:13.792Z,59.86
2019-04-14T20:45:42.141Z,59.69
2019-04-14T20:48:10.532Z,59.49
2019-04-14T20:50:38.904Z,59.27
2019-04-14T20:53:07.307Z,59.69
2019-04-14T20:55:46.288Z,59.14
2019-04-14T20:58:04.060Z,59.45
2019-04-14T21:00:32.444Z,60.87
2019-04-14T21:08:39.909Z,60.40
2019-04-14T21:11:08.285Z,60.70
2019-04-14T21:13:37.517Z,61.00
2019-04-14T21:19:04.828Z,60.33
2019-04-14T21:21:33.188Z,60.62
2019-04-14T21:24:01.533Z,61.93
2019-04-14T21:26:32.126Z,61.41
2019-04-14T21:29:00.883Z,60.81
2019-04-14T21:31:30.136Z,63.10
2019-04-14T21:36:56.660Z,63.33
2019-04-14T21:39:30.949Z,63.46
2019-04-14T21:41:59.294Z,65.59
2019-04-14T21:44:27.632Z,64.97
2019-04-14T21:46:56.002Z,63.93
2019-04-14T21:49:24.409Z,64.90
2019-04-14T21:51:55.200Z,65.71
2019-04-14T21:54:23.560Z,65.44
2019-04-14T21:59:51.400Z,65.24
2019-04-14T22:02:25.341Z,68.02
2019-04-14T22:07:27.925Z,66.65
2019-04-14T22:09:56.277Z,68.63
2019-04-14T22:12:24.690Z,67.66
2019-04-14T22:14:53.033Z,69.14
2019-04-14T22:17:21.395Z,69.80
2019-04-14T22:19:49.752Z,69.59
2019-04-14T22:22:18.103Z,72.37
2019-04-14T22:24:46.500Z,72.55
2019-04-14T22:27:14.828Z,73.35
2019-04-14T22:29:43.260Z,73.99
2019-04-14T22:32:11.532Z,72.67
2019-04-14T22:34:39.871Z,74.66
2019-04-14T22:37:08.304Z,73.85
2019-04-14T22:39:39.123Z,74.84
2019-04-14T22:42:06.096Z,74.92
2019-04-14T22:44:34.491Z,74.01
2019-04-14T22:47:02.868Z,74.52
2019-04-14T22:49:31.247Z,72.91
2019-04-14T22:52:00.556Z,73.08
2019-04-14T22:54:28.935Z,72.77
2019-04-14T22:56:58.250Z,73.33
2019-04-14T22:59:26.588Z,75.13
2019-04-14T23:01:57.216Z,74.88
2019-04-14T23:04:31.140Z,75.36
2019-04-14T23:09:41.404Z,74.53
2019-04-14T23:12:13.996Z,75.93
2019-04-14T23:14:47.812Z,74.00
2019-04-14T23:17:17.061Z,73.96
2019-04-14T23:22:20.455Z,75.36
2019-04-14T23:24:48.805Z,75.05
2019-04-14T23:27:17.342Z,75.30
2019-04-14T23:29:45.746Z,75.14
2019-04-14T23:32:14.175Z,76.30
2019-04-14T23:34:42.622Z,75.69
2019-04-14T23:37:10.976Z,74.67
2019-04-14T23:39:39.339Z,74.83
2019-04-14T23:42:07.785Z,74.94
2019-04-14T23:44:36.109Z,76.02
2019-04-14T23:47:04.465Z,78.25
2019-04-14T23:54:41.271Z,76.52
